createdAt,value
2022-09-07T00:01:05.917Z,22.6
2022-09-07T00:02:05.920Z,22.5
2022-09-07T00:04:05.962Z,22.3
2022-09-07T00:05:05.927Z,22.4
2022-09-07T00:06:05.913Z,22.2
2022-09-07T00:07:05.917Z,22.2
2022-09-07T00:08:05.910Z,22.1
2022-09-07T00:09:05.909Z,22
2022-09-07T00:10:05.934Z,22.1
2022-09-07T00:11:05.921Z,22.2
2022-09-07T00:12:05.918Z,22.2
2022-09-07T00:13:05.910Z,22.1
2022-09-07T00:14:05.921Z,21.8
2022-09-07T00:15:05.920Z,21.8
2022-09-07T00:17:05.925Z,21.7
2022-09-07T00:18:05.924Z,21.7
2022-09-07T00:19:05.922Z,21.8
2022-09-07T00:20:05.920Z,21.9
2022-09-07T00:21:05.914Z,21.9
2022-09-07T00:22:05.928Z,21.9
2022-09-07T00:23:05.920Z,21.9
2022-09-07T00:25:05.925Z,22
2022-09-07T00:26:05.925Z,22.2
2022-09-07T00:27:05.936Z,22.1
2022-09-07T00:28:05.928Z,22.1
2022-09-07T00:29:05.920Z,22.1
2022-09-07T00:30:05.919Z,22
2022-09-07T00:31:05.966Z,21.9
2022-09-07T00:32:05.919Z,21.9
2022-09-07T00:33:05.925Z,21.8
2022-09-07T00:34:05.927Z,21.7
2022-09-07T00:35:05.935Z,21.8
2022-09-07T00:38:05.928Z,21.5
2022-09-07T00:39:05.921Z,21.6
2022-09-07T00:40:06.013Z,21.6
2022-09-07T00:41:05.941Z,21.7
2022-09-07T00:42:05.921Z,21.7
2022-09-07T00:43:05.923Z,21.6
2022-09-07T00:45:05.927Z,21.7
2022-09-07T00:46:06.026Z,21.4
2022-09-07T00:47:05.927Z,21.4
2022-09-07T00:48:05.927Z,21.3
2022-09-07T00:49:05.931Z,21.2
2022-09-07T00:50:05.925Z,21.2
2022-09-07T00:51:05.931Z,21.1
2022-09-07T00:52:05.929Z,21.2
2022-09-07T00:53:05.922Z,21.2
2022-09-07T00:54:05.928Z,21.3
2022-09-07T00:55:05.932Z,21.1
2022-09-07T00:56:05.930Z,21.1
2022-09-07T00:57:05.927Z,20.7
2022-09-07T00:59:05.937Z,20.7
2022-09-07T01:00:05.956Z,20.7
2022-09-07T01:01:05.958Z,20.7
2022-09-07T01:02:06.082Z,20.7
2022-09-07T01:03:06.095Z,20.8
2022-09-07T01:04:05.931Z,20.7
2022-09-07T01:06:05.929Z,20.8
2022-09-07T01:07:05.947Z,20.9
2022-09-07T01:08:05.933Z,20.9
2022-09-07T01:09:05.942Z,21.1
2022-09-07T01:10:05.933Z,21.2
2022-09-07T01:11:05.933Z,21.4
2022-09-07T01:12:05.932Z,21.5
2022-09-07T01:13:05.933Z,21.6
2022-09-07T01:14:05.934Z,21.7
2022-09-07T01:16:05.965Z,21.9
2022-09-07T01:17:05.940Z,21.9
2022-09-07T01:18:05.940Z,22
2022-09-07T01:20:05.953Z,22.1
2022-09-07T01:21:05.940Z,22.2
2022-09-07T01:22:05.936Z,22.1
2022-09-07T01:23:05.960Z,22.1
2022-09-07T01:24:05.945Z,22.1
2022-09-07T01:25:05.937Z,22.1
2022-09-07T01:26:05.943Z,22.1
2022-09-07T01:27:05.943Z,22
2022-09-07T01:28:05.944Z,21.8
2022-09-07T01:29:05.947Z,21.7
2022-09-07T01:31:05.986Z,21.9
2022-09-07T01:32:05.947Z,21.9
2022-09-07T01:33:05.949Z,21.9
2022-09-07T01:34:05.949Z,21.9
2022-09-07T01:35:05.941Z,22
2022-09-07T01:36:05.937Z,22
2022-09-07T01:37:05.942Z,22
2022-09-07T01:38:05.947Z,22.1
2022-09-07T01:39:05.952Z,22.1
2022-09-07T01:41:05.944Z,22.1
2022-09-07T01:42:05.946Z,22.1
2022-09-07T01:43:05.947Z,22.1
2022-09-07T01:44:05.946Z,22.2
2022-09-07T01:45:05.949Z,22.2
2022-09-07T01:46:06.008Z,22.2
2022-09-07T01:47:05.952Z,22.2
2022-09-07T01:48:05.942Z,22.2
2022-09-07T01:49:05.947Z,22.3
2022-09-07T01:50:05.956Z,22.3
2022-09-07T01:51:05.955Z,22.3
2022-09-07T01:52:05.947Z,22.2
2022-09-07T01:54:05.989Z,22.2
2022-09-07T01:55:05.950Z,22.3
2022-09-07T01:56:05.966Z,22.3
2022-09-07T01:57:05.959Z,22.3
2022-09-07T01:58:05.959Z,22.3
2022-09-07T02:00:05.947Z,22.3
2022-09-07T02:01:05.969Z,22.3
2022-09-07T02:02:05.999Z,22.3
2022-09-07T02:03:06.036Z,22.3
2022-09-07T02:04:05.953Z,22.2
2022-09-07T02:06:05.957Z,22.3
2022-09-07T02:07:05.967Z,22.2
2022-09-07T02:08:05.962Z,22.2
2022-09-07T02:09:05.966Z,22.3
2022-09-07T02:10:05.945Z,22.2
2022-09-07T02:11:05.967Z,22.2
2022-09-07T02:13:05.960Z,22.2
2022-09-07T02:14:05.956Z,22.2
2022-09-07T02:15:05.960Z,22.2
2022-09-07T02:16:06.026Z,22.2
2022-09-07T02:17:05.954Z,22.2
2022-09-07T02:18:05.953Z,22.2
2022-09-07T02:19:05.952Z,22.2
2022-09-07T02:21:05.961Z,22.3
2022-09-07T02:22:05.956Z,22.2
2022-09-07T02:23:05.955Z,22.2
2022-09-07T02:24:05.965Z,22.2
2022-09-07T02:25:05.955Z,22.2
2022-09-07T02:26:05.958Z,22.2
2022-09-07T02:27:05.960Z,22.2
2022-09-07T02:28:05.997Z,22.2
2022-09-07T02:29:05.961Z,22.2
2022-09-07T02:30:05.958Z,22.2
2022-09-07T02:31:06.100Z,22.1
2022-09-07T02:32:05.954Z,22.1
2022-09-07T02:34:05.964Z,22.2
2022-09-07T02:35:05.957Z,22.2
2022-09-07T02:36:05.964Z,22.1
2022-09-07T02:37:05.963Z,21.8
2022-09-07T02:38:05.986Z,21.7
2022-09-07T02:39:05.965Z,21.8
2022-09-07T02:40:06.033Z,21.7
2022-09-07T02:42:05.975Z,21.7
2022-09-07T02:43:05.971Z,21.7
2022-09-07T02:44:05.955Z,21.6
2022-09-07T02:45:05.963Z,21.6
2022-09-07T02:46:06.038Z,21.6
2022-09-07T02:47:05.967Z,21.5
2022-09-07T02:48:05.966Z,21.5
2022-09-07T02:49:05.969Z,21.5
2022-09-07T02:50:05.981Z,21.5
2022-09-07T02:51:05.965Z,21.6
2022-09-07T02:52:05.960Z,21.7
2022-09-07T02:53:05.966Z,21.7
2022-09-07T02:55:05.977Z,21.7
2022-09-07T02:56:05.965Z,21.5
2022-09-07T02:57:05.966Z,21.5
2022-09-07T02:58:05.969Z,21.5
2022-09-07T02:59:05.974Z,21.6
2022-09-07T03:00:05.977Z,21.6
2022-09-07T03:01:06.067Z,21.6
2022-09-07T03:03:05.981Z,21.6
2022-09-07T03:05:05.975Z,21.7
2022-09-07T03:06:05.974Z,21.7
2022-09-07T03:07:05.976Z,21.7
2022-09-07T03:08:05.976Z,21.6
2022-09-07T03:09:05.977Z,21.7
2022-09-07T03:10:05.981Z,21.7
2022-09-07T03:11:05.976Z,21.7
2022-09-07T03:12:05.977Z,21.7
2022-09-07T03:13:05.973Z,21.7
2022-09-07T03:14:06.015Z,21.7
2022-09-07T03:16:06.025Z,21.6
2022-09-07T03:17:06.005Z,21.6
2022-09-07T03:18:05.980Z,21.6
2022-09-07T03:19:05.979Z,21.6
2022-09-07T03:20:05.986Z,21.5
2022-09-07T03:21:06.006Z,21.5
2022-09-07T03:22:05.983Z,21.5
2022-09-07T03:24:05.987Z,21.5
2022-09-07T03:25:05.978Z,21.5
2022-09-07T03:26:05.983Z,21.5
2022-09-07T03:27:05.986Z,21.5
2022-09-07T03:28:05.985Z,21.5
2022-09-07T03:29:05.983Z,21.5
2022-09-07T03:30:05.986Z,21.5
2022-09-07T03:31:06.622Z,21.5
2022-09-07T03:32:05.984Z,21.5
2022-09-07T03:33:05.982Z,21.4
2022-09-07T03:34:06.006Z,21.4
2022-09-07T03:35:05.975Z,21.4
2022-09-07T03:37:05.980Z,21.3
2022-09-07T03:38:05.988Z,21.4
2022-09-07T03:39:05.998Z,21.4
2022-09-07T03:40:06.047Z,21.4
2022-09-07T03:41:05.985Z,21.4
2022-09-07T03:42:05.990Z,21.3
2022-09-07T03:45:05.987Z,21.3
2022-09-07T03:46:06.080Z,21.4
2022-09-07T03:47:05.992Z,21.4
2022-09-07T03:48:06.026Z,21.5
2022-09-07T03:49:05.992Z,21.6
2022-09-07T03:50:05.983Z,21.6
2022-09-07T03:52:05.986Z,21.7
2022-09-07T03:53:05.987Z,21.7
2022-09-07T03:54:05.984Z,21.6
2022-09-07T03:55:05.986Z,21.6
2022-09-07T03:56:05.990Z,21.6
2022-09-07T03:58:05.983Z,21.6
2022-09-07T03:59:05.991Z,21.6
2022-09-07T04:00:05.997Z,21.6
2022-09-07T04:01:06.085Z,21.6
2022-09-07T04:02:06.052Z,21.6
2022-09-07T04:03:05.997Z,21.6
2022-09-07T04:04:05.989Z,21.6
2022-09-07T04:06:05.987Z,21.7
2022-09-07T04:07:05.996Z,21.6
2022-09-07T04:08:06.004Z,21.7
2022-09-07T04:09:06.372Z,21.7
2022-09-07T04:11:05.987Z,21.6
2022-09-07T04:12:05.995Z,21.6
2022-09-07T04:13:06.001Z,21.5
2022-09-07T04:14:05.999Z,21.5
2022-09-07T04:15:06.019Z,21.5
2022-09-07T04:16:05.989Z,21.5
2022-09-07T04:17:06.075Z,21.5
2022-09-07T04:18:05.997Z,21.5
2022-09-07T04:19:06.002Z,21.5
2022-09-07T04:21:05.989Z,21.6
2022-09-07T04:22:05.993Z,21.6
2022-09-07T04:23:05.993Z,21.6
2022-09-07T04:24:05.999Z,21.6
2022-09-07T04:25:05.995Z,21.6
2022-09-07T04:26:05.998Z,21.6
2022-09-07T04:27:05.998Z,21.6
2022-09-07T04:29:05.998Z,21.5
2022-09-07T04:30:05.996Z,21.5
2022-09-07T04:31:06.046Z,21.6
2022-09-07T04:32:06.014Z,21.6
2022-09-07T04:34:05.997Z,21.6
2022-09-07T04:35:06.003Z,21.6
2022-09-07T04:36:06.002Z,21.5
2022-09-07T04:37:06.002Z,21.6
2022-09-07T04:38:06.030Z,21.6
2022-09-07T04:39:06.004Z,21.5
2022-09-07T04:40:06.110Z,21.5
2022-09-07T04:42:06.000Z,21.5
2022-09-07T04:43:06.001Z,21.5
2022-09-07T04:44:05.999Z,21.4
2022-09-07T04:45:05.995Z,21.4
2022-09-07T04:46:06.077Z,21.4
2022-09-07T04:47:06.000Z,21.4
2022-09-07T04:48:06.023Z,21.4
2022-09-07T04:50:06.004Z,21.3
2022-09-07T04:51:06.051Z,21.3
2022-09-07T04:52:06.011Z,21.3
2022-09-07T04:53:06.002Z,21.3
2022-09-07T04:54:06.017Z,21.3
2022-09-07T04:55:06.016Z,21.3
2022-09-07T04:56:06.071Z,21.3
2022-09-07T04:57:06.039Z,21.4
2022-09-07T04:58:06.005Z,21.4
2022-09-07T04:59:06.023Z,21.4
2022-09-07T05:00:06.010Z,21.4
2022-09-07T05:01:06.059Z,21.3
2022-09-07T05:03:06.037Z,21.3
2022-09-07T05:04:06.004Z,21.2
2022-09-07T05:05:06.016Z,21.1
2022-09-07T05:06:06.004Z,21.2
2022-09-07T05:07:06.009Z,21.1
2022-09-07T05:08:06.009Z,21.2
2022-09-07T05:09:06.012Z,21.1
2022-09-07T05:11:06.010Z,21
2022-09-07T05:12:06.015Z,21.1
2022-09-07T05:13:06.009Z,21.1
2022-09-07T05:14:06.009Z,21.1
2022-09-07T05:16:06.075Z,21.2
2022-09-07T05:17:06.008Z,21.3
2022-09-07T05:18:06.009Z,21.3
2022-09-07T05:19:06.010Z,21.3
2022-09-07T05:20:06.058Z,21.4
2022-09-07T05:21:06.014Z,21.3
2022-09-07T05:22:06.017Z,21.3
2022-09-07T05:23:06.014Z,21.3
2022-09-07T05:24:06.009Z,21.3
2022-09-07T05:25:06.038Z,21.2
2022-09-07T05:26:06.012Z,21.2
2022-09-07T05:27:06.014Z,21.3
2022-09-07T05:28:06.022Z,21.3
2022-09-07T05:30:06.628Z,21.4
2022-09-07T05:31:21.436Z,21.4
2022-09-07T05:32:06.033Z,21.4
2022-09-07T05:33:06.023Z,21.4
2022-09-07T05:35:06.022Z,21.4
2022-09-07T05:36:06.015Z,21.4
2022-09-07T05:37:06.035Z,21.4
2022-09-07T05:38:06.014Z,21.4
2022-09-07T05:39:06.020Z,21.4
2022-09-07T05:40:06.152Z,21.4
2022-09-07T05:43:06.021Z,21.4
2022-09-07T05:45:06.025Z,21.3
2022-09-07T05:46:06.150Z,21.3
2022-09-07T05:47:06.025Z,21.3
2022-09-07T05:48:06.024Z,21.4
2022-09-07T05:49:06.030Z,21.4
2022-09-07T05:50:06.027Z,21.4
2022-09-07T05:51:06.015Z,21.4
2022-09-07T05:52:06.025Z,21.5
2022-09-07T05:53:06.019Z,21.5
2022-09-07T05:54:06.020Z,21.5
2022-09-07T05:56:07.176Z,21.5
2022-09-07T05:58:06.028Z,21.5
2022-09-07T05:59:06.021Z,21.4
2022-09-07T06:00:06.037Z,21.3
2022-09-07T06:01:06.024Z,21.3
2022-09-07T06:02:06.150Z,21.2
2022-09-07T06:04:06.027Z,21.2
2022-09-07T06:05:06.031Z,21.3
2022-09-07T06:06:06.033Z,21.3
2022-09-07T06:07:22.705Z,21.3
2022-09-07T06:09:06.070Z,21.4
2022-09-07T06:11:06.492Z,21.2
2022-09-07T06:12:06.032Z,21.2
2022-09-07T06:13:06.033Z,21.2
2022-09-07T06:14:06.031Z,21.3
2022-09-07T06:15:06.050Z,21.3
2022-09-07T06:17:06.033Z,21.4
2022-09-07T06:18:06.037Z,21.5
2022-09-07T06:19:06.042Z,21.5
2022-09-07T06:20:06.037Z,21.6
2022-09-07T06:21:06.036Z,21.6
2022-09-07T06:22:06.030Z,21.6
2022-09-07T06:23:06.032Z,21.7
2022-09-07T06:25:06.036Z,21.8
2022-09-07T06:26:06.030Z,21.7
2022-09-07T06:27:06.033Z,21.7
2022-09-07T06:28:06.057Z,21.8
2022-09-07T06:29:06.036Z,21.8
2022-09-07T06:30:06.034Z,21.9
2022-09-07T06:31:06.039Z,21.9
2022-09-07T06:33:06.042Z,22
2022-09-07T06:34:06.043Z,22
2022-09-07T06:35:06.042Z,22
2022-09-07T06:36:06.038Z,22
2022-09-07T06:38:06.043Z,21.9
2022-09-07T06:40:06.230Z,21.6
2022-09-07T06:42:13.173Z,21.7
2022-09-07T06:43:06.042Z,21.7
2022-09-07T06:44:06.048Z,21.8
2022-09-07T06:47:06.046Z,21.8
2022-09-07T06:48:06.045Z,21.9
2022-09-07T06:49:06.043Z,21.8
2022-09-07T06:50:06.049Z,21.8
2022-09-07T06:51:06.046Z,21.8
2022-09-07T06:52:06.105Z,21.7
2022-09-07T06:55:06.050Z,21.6
2022-09-07T06:56:06.041Z,21.5
2022-09-07T06:57:06.109Z,21.6
2022-09-07T06:59:06.041Z,21.6
2022-09-07T07:00:06.051Z,21.6
2022-09-07T07:01:06.101Z,21.7
2022-09-07T07:02:06.052Z,21.7
2022-09-07T07:03:06.125Z,21.8
2022-09-07T07:04:06.077Z,21.7
2022-09-07T07:05:06.045Z,21.8
2022-09-07T07:07:06.062Z,21.7
2022-09-07T07:08:06.056Z,21.7
2022-09-07T07:09:06.051Z,21.7
2022-09-07T07:10:06.048Z,21.5
2022-09-07T07:11:06.060Z,21.3
2022-09-07T07:13:06.050Z,21.3
2022-09-07T07:14:06.081Z,21.3
2022-09-07T07:15:06.051Z,21.4
2022-09-07T07:16:06.121Z,21.3
2022-09-07T07:17:06.068Z,21.3
2022-09-07T07:18:20.240Z,21.4
2022-09-07T07:19:06.055Z,21.5
2022-09-07T07:20:06.050Z,21.6
2022-09-07T07:22:18.615Z,21.8
2022-09-07T07:23:06.058Z,21.9
2022-09-07T07:24:08.173Z,21.9
2022-09-07T07:25:06.064Z,21.9
2022-09-07T07:26:06.070Z,21.7
2022-09-07T07:33:07.285Z,21.6
2022-09-07T07:35:06.060Z,21.8
2022-09-07T07:36:06.057Z,21.8
2022-09-07T07:37:06.069Z,21.8
2022-09-07T07:42:03.340Z,22.1
2022-09-07T07:47:06.157Z,22.3
2022-09-07T07:48:06.067Z,22.3
2022-09-07T07:49:06.156Z,22.4
2022-09-07T08:05:06.082Z,22.2
2022-09-07T08:09:06.070Z,21.9
2022-09-07T08:11:06.073Z,21.8
2022-09-07T08:12:06.099Z,21.8
2022-09-07T08:13:06.074Z,21.7
2022-09-07T09:05:21.530Z,21.9
2022-09-07T09:09:06.102Z,22.1
2022-09-07T09:11:06.092Z,22
2022-09-07T09:13:06.094Z,22.1
2022-09-07T09:21:06.089Z,22.2
2022-09-07T09:23:06.085Z,22
2022-09-07T09:24:06.125Z,22
2022-09-07T09:32:06.095Z,22.3
2022-09-07T09:36:06.127Z,22.2
2022-09-07T09:40:06.161Z,22.4
2022-09-07T09:42:06.103Z,22.4
2022-09-07T09:43:06.105Z,22.4
2022-09-07T09:49:06.097Z,22.1
2022-09-07T09:53:06.189Z,22.2
2022-09-07T09:55:35.531Z,22.3
2022-09-07T09:57:06.108Z,22.2
2022-09-07T10:01:22.386Z,22.6
2022-09-07T10:09:06.108Z,22.5
2022-09-07T10:13:06.111Z,22.6
2022-09-07T10:17:06.117Z,22.6
2022-09-07T10:19:06.117Z,22.8
2022-09-07T10:20:06.141Z,22.9
2022-09-07T10:21:06.114Z,22.9
2022-09-07T10:23:06.112Z,23
2022-09-07T10:24:06.148Z,23
2022-09-07T10:25:06.115Z,23.1
2022-09-07T10:28:06.118Z,23.5
2022-09-07T10:32:06.121Z,23.8
2022-09-07T10:58:06.125Z,23
2022-09-07T10:59:06.142Z,23
2022-09-07T11:00:09.882Z,23
2022-09-07T11:15:07.339Z,24
2022-09-07T11:16:06.406Z,23.9
2022-09-07T11:17:06.233Z,23.8
2022-09-07T11:26:06.180Z,23.7
2022-09-07T11:28:06.146Z,23.8
2022-09-07T11:30:06.134Z,24
2022-09-07T12:26:06.156Z,25.4
2022-09-07T12:27:06.158Z,25.6
2022-09-07T12:28:06.186Z,25.8
2022-09-07T12:39:06.212Z,26.1
2022-09-07T12:40:06.190Z,26.2
2022-09-07T12:41:06.176Z,26.1
2022-09-07T13:07:06.177Z,26.3
2022-09-07T13:19:06.188Z,26.1
2022-09-07T13:21:06.186Z,26
2022-09-07T13:22:06.180Z,26
2022-09-07T13:23:06.190Z,26.1
2022-09-07T13:38:06.194Z,26.8
2022-09-07T13:41:06.188Z,26.8
2022-09-07T13:42:06.198Z,26.7
2022-09-07T13:43:06.190Z,26.5
2022-09-07T13:45:06.186Z,26.4
2022-09-07T13:46:06.271Z,26.3
2022-09-07T13:47:06.191Z,26.3
2022-09-07T13:48:06.189Z,26.3
2022-09-07T13:49:06.455Z,26.1
2022-09-07T13:50:06.191Z,26.2
2022-09-07T13:51:06.191Z,26.2
2022-09-07T15:21:06.231Z,27
2022-09-07T15:26:06.650Z,26.8
2022-09-07T15:29:10.895Z,26.8
2022-09-07T15:32:08.002Z,26.9
2022-09-07T15:33:06.264Z,26.9
2022-09-07T15:34:06.231Z,26.7
2022-09-07T15:50:06.238Z,26.7
2022-09-07T15:52:06.745Z,26.9
2022-09-07T15:53:06.324Z,26.9
2022-09-07T15:54:11.539Z,27
2022-09-07T15:55:06.249Z,26.8
2022-09-07T15:58:11.687Z,27
2022-09-07T15:59:06.244Z,27.2
2022-09-07T16:06:07.858Z,27.7
2022-09-07T16:07:06.245Z,27.8
2022-09-07T16:14:06.253Z,27.6
2022-09-07T16:16:06.391Z,27.6
2022-09-07T16:54:06.273Z,26.3
2022-09-07T17:00:06.276Z,26.4
2022-09-07T17:01:06.418Z,26.4
2022-09-07T17:02:06.271Z,26.4
2022-09-07T17:03:06.272Z,26.4
2022-09-07T17:17:06.343Z,25.8
2022-09-07T17:34:06.287Z,25.5
2022-09-07T18:19:06.299Z,24.3
2022-09-07T19:10:06.315Z,23
2022-09-07T19:44:06.330Z,22.4
2022-09-07T21:19:06.368Z,21.3
2022-09-07T21:37:06.390Z,21.3
2022-09-07T22:23:06.381Z,20.7
2022-09-07T23:14:06.402Z,21
